Nome, AK

11:42 AM AKST on February 10, 2016 (GMT -0900)
Banner Creek | | Change Station
CLOSE
Current Station
Personal Weather Station
Location: Nome, AK
Elevation: 75 ft
Nearby Weather Stations

Elev 75 ft 64.64 °N, 165.28 °W | Updated 2 minutes ago

Clear
Clear
20.7 °F
Feels Like 21 °F
N
0.0
Wind Variable Wind from WSW
Gusts 6.0 mph

Today
High -- | Low -- °F
--% Chance of Precip.
Yesterday
High -- | Low -- °F
Precip. -- in
Pressure 29.91 in
Visibility 10.0 miles
Clouds Clear
Windchill 21 °F
Dew Point 9 °F
Humidity 61%
Rainfall 0.00 in
Snow Depth Not available.
10:16 AM 6:15 PM
Waxing Crescent, 7% visible
METAR PAOM 101953Z 00000KT 10SM CLR M11/M13 A2991 RMK SLP127 T11111133 VIA AUTODIAL
Pressure 29.91 in
Visibility 10.0 miles
Clouds Clear
Windchill 21 °F
Dew Point 9 °F
Humidity 61%
Rainfall 0.00 in
Snow Depth Not available.
10:16 AM 6:15 PM
Waxing Crescent, 7% visible
METAR PAOM 101953Z 00000KT 10SM CLR M11/M13 A2991 RMK SLP127 T11111133 VIA AUTODIAL

10-Day Weather Forecast

Almanac

Astronomy

Feb. 10, 2016 Rise Set
Actual Time
Civil Twilight
Nautical Twilight
Astronomical Twilight
Moon
Length of Visible Light
Length of Day
Tomorrow will be .
, % of the Moon is Illuminated

Today's Extremes

State Highs State Lows

Community

WunderPhotos

Upload Photos

1,891,945 photos uploaded!

WunderBlog® & News

Nearby

Air Quality

  Air Quality AQ Index Pollutant
Not available.

Snow Depth

Station Depth Elevation

Earthquake Activity

City Distance Mag. Time & Date
Minimum magnitude displayed is 2.5.

Coastal Water Temperatures

Place Temperature

Stations

Nearby Weather Stations

Station Location Temp. Windchill Dew Point Humidity Wind Precip. Elev Updated Type
                   

Watches & Warnings

There are currently no watches in effect.